Time,TemperatureF,DewpointF,PressureIn,WindDirection,WindDirectionDegrees,WindSpeedMPH,WindSpeedGustMPH,Humidity,HourlyPrecipIn,Conditions,Clouds,dailyrainin,SoftwareType,DateUTC
2013-02-03 00:11:00,-999.0,-99.9,30.07,North,-999,-999.0,-999.0,-999,0.00,,,0.00,weatherlink.com 1.10,2013-02-03 05:11:00,
2013-02-03 00:26:00,-999.0,-99.9,30.07,North,-999,-999.0,-999.0,-999,0.00,,,0.00,weatherlink.com 1.10,2013-02-03 05:26:00,
2013-02-03 00:42:00,-999.0,-99.9,30.07,North,-999,-999.0,-999.0,-999,0.00,,,0.00,weatherlink.com 1.10,2013-02-03 05:42:00,
2013-02-03 00:57:00,-999.0,-99.9,30.07,North,-999,-999.0,-999.0,-999,0.00,,,0.00,weatherlink.com 1.10,2013-02-03 05:57:00,
2013-02-03 01:12:00,-999.0,-99.9,30.06,North,-999,-999.0,-999.0,-999,0.00,,,0.00,weatherlink.com 1.10,2013-02-03 06:12:00,
2013-02-03 01:27:00,-999.0,-99.9,30.05,North,-999,-999.0,-999.0,-999,0.00,,,0.00,weatherlink.com 1.10,2013-02-03 06:27:00,
2013-02-03 01:42:00,-999.0,-99.9,30.05,North,-999,-999.0,-999.0,-999,0.00,,,0.00,weatherlink.com 1.10,2013-02-03 06:42:00,
2013-02-03 01:57:00,-999.0,-99.9,30.05,North,-999,-999.0,-999.0,-999,0.00,,,0.00,weatherlink.com 1.10,2013-02-03 06:57:00,
2013-02-03 02:12:00,-999.0,-99.9,30.05,North,-999,-999.0,-999.0,-999,0.00,,,0.00,weatherlink.com 1.10,2013-02-03 07:12:00,
2013-02-03 02:27:00,-999.0,-99.9,30.04,North,-999,-999.0,-999.0,-999,0.00,,,0.00,weatherlink.com 1.10,2013-02-03 07:27:00,
2013-02-03 02:42:00,-999.0,-99.9,30.04,North,-999,-999.0,-999.0,-999,0.00,,,0.00,weatherlink.com 1.10,2013-02-03 07:42:00,
2013-02-03 02:57:00,-999.0,-99.9,30.04,North,-999,-999.0,-999.0,-999,0.00,,,0.00,weatherlink.com 1.10,2013-02-03 07:57:00,
2013-02-03 03:12:00,-999.0,-99.9,30.03,North,-999,-999.0,-999.0,-999,0.00,,,0.00,weatherlink.com 1.10,2013-02-03 08:12:00,
2013-02-03 03:27:00,-999.0,-99.9,30.02,North,-999,-999.0,-999.0,-999,0.00,,,0.00,weatherlink.com 1.10,2013-02-03 08:27:00,
2013-02-03 03:42:00,-999.0,-99.9,30.01,North,-999,-999.0,-999.0,-999,0.00,,,0.00,weatherlink.com 1.10,2013-02-03 08:42:00,
2013-02-03 03:58:00,-999.0,-99.9,30.00,North,-999,-999.0,-999.0,-999,0.00,,,0.00,weatherlink.com 1.10,2013-02-03 08:58:00,
2013-02-03 04:13:00,-999.0,-99.9,30.00,North,-999,-999.0,-999.0,-999,0.00,,,0.00,weatherlink.com 1.10,2013-02-03 09:13:00,
2013-02-03 04:28:00,-999.0,-99.9,29.99,North,-999,-999.0,-999.0,-999,0.00,,,0.00,weatherlink.com 1.10,2013-02-03 09:28:00,
2013-02-03 04:43:00,-999.0,-99.9,29.99,North,-999,-999.0,-999.0,-999,0.00,,,0.00,weatherlink.com 1.10,2013-02-03 09:43:00,
2013-02-03 04:58:00,-999.0,-99.9,29.99,North,-999,-999.0,-999.0,-999,0.00,,,0.00,weatherlink.com 1.10,2013-02-03 09:58:00,
2013-02-03 05:13:00,-999.0,-99.9,29.98,North,-999,-999.0,-999.0,-999,0.00,,,0.00,weatherlink.com 1.10,2013-02-03 10:13:00,
2013-02-03 05:28:00,-999.0,-99.9,29.98,North,-999,-999.0,-999.0,-999,0.00,,,0.00,weatherlink.com 1.10,2013-02-03 10:28:00,
2013-02-03 05:43:00,-999.0,-99.9,29.99,North,-999,-999.0,-999.0,-999,0.00,,,0.00,weatherlink.com 1.10,2013-02-03 10:43:00,
2013-02-03 05:58:00,-999.0,-99.9,29.99,North,-999,-999.0,-999.0,-999,0.00,,,0.00,weatherlink.com 1.10,2013-02-03 10:58:00,
2013-02-03 06:13:00,-999.0,-99.9,29.98,North,-999,-999.0,-999.0,-999,0.00,,,0.00,weatherlink.com 1.10,2013-02-03 11:13:00,
2013-02-03 06:28:00,-999.0,-99.9,29.98,North,-999,-999.0,-999.0,-999,0.00,,,0.00,weatherlink.com 1.10,2013-02-03 11:28:00,
2013-02-03 06:43:00,-999.0,-99.9,29.98,North,-999,-999.0,-999.0,-999,0.00,,,0.00,weatherlink.com 1.10,2013-02-03 11:43:00,
2013-02-03 06:59:00,-999.0,-99.9,29.98,North,-999,-999.0,-999.0,-999,0.00,,,0.00,weatherlink.com 1.10,2013-02-03 11:59:00,
2013-02-03 07:14:00,-999.0,-99.9,29.98,North,-999,-999.0,-999.0,-999,0.00,,,0.00,weatherlink.com 1.10,2013-02-03 12:14:00,
2013-02-03 07:29:00,-999.0,-99.9,29.98,North,-999,-999.0,-999.0,-999,0.00,,,0.00,weatherlink.com 1.10,2013-02-03 12:29:00,
2013-02-03 07:44:00,-999.0,-99.9,29.98,North,-999,-999.0,-999.0,-999,0.00,,,0.00,weatherlink.com 1.10,2013-02-03 12:44:00,
2013-02-03 07:59:00,-999.0,-99.9,29.99,North,-999,-999.0,-999.0,-999,0.00,,,0.00,weatherlink.com 1.10,2013-02-03 12:59:00,
2013-02-03 08:14:00,-999.0,-99.9,29.99,North,-999,-999.0,-999.0,-999,0.00,,,0.00,weatherlink.com 1.10,2013-02-03 13:14:00,
2013-02-03 08:29:00,-999.0,-99.9,29.99,North,-999,-999.0,-999.0,-999,0.00,,,0.00,weatherlink.com 1.10,2013-02-03 13:29:00,
2013-02-03 08:59:00,-999.0,-99.9,30.00,North,-999,-999.0,-999.0,-999,0.00,,,0.00,weatherlink.com 1.10,2013-02-03 13:59:00,
2013-02-03 09:14:00,-999.0,-99.9,30.00,North,-999,-999.0,-999.0,-999,0.00,,,0.00,weatherlink.com 1.10,2013-02-03 14:14:00,
2013-02-03 09:29:00,-999.0,-99.9,30.01,North,-999,-999.0,-999.0,-999,0.00,,,0.00,weatherlink.com 1.10,2013-02-03 14:29:00,
2013-02-03 09:45:00,-999.0,-99.9,30.01,North,-999,-999.0,-999.0,-999,0.00,,,0.00,weatherlink.com 1.10,2013-02-03 14:45:00,
2013-02-03 09:59:00,-999.0,-99.9,30.01,North,-999,-999.0,-999.0,-999,0.00,,,0.00,weatherlink.com 1.10,2013-02-03 14:59:00,
2013-02-03 10:14:00,-999.0,-99.9,30.01,North,-999,-999.0,-999.0,-999,0.00,,,0.00,weatherlink.com 1.10,2013-02-03 15:14:00,
2013-02-03 10:29:00,-999.0,-99.9,30.02,North,-999,-999.0,-999.0,-999,0.00,,,0.00,weatherlink.com 1.10,2013-02-03 15:29:00,
2013-02-03 10:45:00,30.2,29.0,30.02,North,360,4.0,11.0,94,0.00,,,0.00,weatherlink.com 1.10,2013-02-03 15:45:00,
2013-02-03 11:00:00,30.2,29.0,30.02,North,360,7.0,13.0,94,0.00,,,0.00,weatherlink.com 1.10,2013-02-03 16:00:00,
2013-02-03 11:15:00,30.0,29.0,30.03,North,360,6.0,12.0,94,0.00,,,0.00,weatherlink.com 1.10,2013-02-03 16:15:00,
2013-02-03 11:30:00,30.1,28.0,30.04,North,360,6.0,14.0,93,0.00,,,0.00,weatherlink.com 1.10,2013-02-03 16:30:00,
2013-02-03 11:45:00,30.2,29.0,30.04,North,360,4.0,8.0,93,0.00,,,0.00,weatherlink.com 1.10,2013-02-03 16:45:00,
2013-02-03 12:00:00,30.2,29.0,30.04,North,360,13.0,17.0,93,0.00,,,0.00,weatherlink.com 1.10,2013-02-03 17:00:00,
2013-02-03 12:15:00,30.2,29.0,30.05,North,360,5.0,14.0,93,0.00,,,0.00,weatherlink.com 1.10,2013-02-03 17:15:00,
2013-02-03 12:30:00,30.3,29.0,30.05,North,360,6.0,15.0,93,0.00,,,0.00,weatherlink.com 1.10,2013-02-03 17:30:00,
2013-02-03 12:45:00,30.3,28.0,30.06,North,360,9.0,17.0,92,0.00,,,0.00,weatherlink.com 1.10,2013-02-03 17:45:00,
2013-02-03 13:00:00,30.2,28.0,30.06,North,360,9.0,16.0,91,0.00,,,0.00,weatherlink.com 1.10,2013-02-03 18:00:00,
2013-02-03 13:15:00,30.2,28.0,30.07,North,360,6.0,18.0,90,0.00,,,0.00,weatherlink.com 1.10,2013-02-03 18:15:00,
2013-02-03 13:30:00,30.1,27.0,30.07,North,360,11.0,18.0,88,0.00,,,0.00,weatherlink.com 1.10,2013-02-03 18:30:00,
2013-02-03 13:45:00,29.9,27.0,30.08,North,360,21.0,22.0,87,0.00,,,0.00,weatherlink.com 1.10,2013-02-03 18:45:00,
2013-02-03 14:00:00,30.0,25.0,30.07,North,360,19.0,24.0,83,0.00,,,0.00,weatherlink.com 1.10,2013-02-03 19:00:00,
2013-02-03 14:15:00,30.0,25.0,30.08,North,360,6.0,20.0,82,0.00,,,0.00,weatherlink.com 1.10,2013-02-03 19:15:00,
2013-02-03 14:30:00,29.9,25.0,30.09,North,360,14.0,20.0,82,0.00,,,0.00,weatherlink.com 1.10,2013-02-03 19:30:00,
2013-02-03 14:45:00,30.0,25.0,30.09,North,360,3.0,14.0,82,0.00,,,0.00,weatherlink.com 1.10,2013-02-03 19:45:00,
2013-02-03 15:00:00,30.2,25.0,30.09,North,360,9.0,17.0,82,0.00,,,0.00,weatherlink.com 1.10,2013-02-03 20:00:00,
2013-02-03 15:15:00,30.4,26.0,30.10,North,360,6.0,13.0,82,0.00,,,0.00,weatherlink.com 1.10,2013-02-03 20:15:00,
2013-02-03 15:30:00,30.5,25.0,30.11,North,360,8.0,13.0,81,0.00,,,0.00,weatherlink.com 1.10,2013-02-03 20:30:00,
2013-02-03 15:45:00,30.6,25.0,30.11,North,360,5.0,14.0,80,0.00,,,0.00,weatherlink.com 1.10,2013-02-03 20:45:00,
2013-02-03 16:00:00,30.6,25.0,30.11,North,360,5.0,12.0,80,0.00,,,0.00,weatherlink.com 1.10,2013-02-03 21:00:00,
2013-02-03 16:15:00,30.6,25.0,30.11,North,360,7.0,14.0,79,0.00,,,0.00,weatherlink.com 1.10,2013-02-03 21:15:00,
2013-02-03 16:30:00,30.6,25.0,30.11,North,360,5.0,13.0,79,0.00,,,0.00,weatherlink.com 1.10,2013-02-03 21:30:00,
2013-02-03 16:45:00,30.6,25.0,30.11,North,360,4.0,12.0,80,0.00,,,0.00,weatherlink.com 1.10,2013-02-03 21:45:00,
2013-02-03 17:00:00,30.5,25.0,30.11,North,360,5.0,9.0,80,0.00,,,0.00,weatherlink.com 1.10,2013-02-03 22:00:00,
2013-02-03 17:16:00,-999.0,-99.9,30.12,North,-999,-999.0,-999.0,-999,0.00,,,0.00,weatherlink.com 1.10,2013-02-03 22:16:00,
2013-02-03 17:31:00,-999.0,-99.9,30.13,North,-999,-999.0,-999.0,-999,0.00,,,0.00,weatherlink.com 1.10,2013-02-03 22:31:00,
2013-02-03 17:46:00,-999.0,-99.9,30.13,North,-999,-999.0,-999.0,-999,0.00,,,0.00,weatherlink.com 1.10,2013-02-03 22:46:00,
2013-02-03 18:00:00,-999.0,-99.9,30.13,North,-999,-999.0,-999.0,-999,0.00,,,0.00,weatherlink.com 1.10,2013-02-03 23:00:00,
2013-02-03 18:15:00,-999.0,-99.9,30.14,North,-999,-999.0,-999.0,-999,0.00,,,0.00,weatherlink.com 1.10,2013-02-03 23:15:00,
2013-02-03 18:31:00,-999.0,-99.9,30.15,North,-999,-999.0,-999.0,-999,0.00,,,0.00,weatherlink.com 1.10,2013-02-03 23:31:00,
2013-02-03 18:46:00,-999.0,-99.9,30.15,North,-999,-999.0,-999.0,-999,0.00,,,0.00,weatherlink.com 1.10,2013-02-03 23:46:00,
2013-02-03 19:01:00,-999.0,-99.9,30.16,North,-999,-999.0,-999.0,-999,0.00,,,0.00,weatherlink.com 1.10,2013-02-04 00:01:00,
2013-02-03 19:16:00,-999.0,-99.9,30.17,North,-999,-999.0,-999.0,-999,0.00,,,0.00,weatherlink.com 1.10,2013-02-04 00:16:00,
2013-02-03 19:31:00,-999.0,-99.9,30.17,North,-999,-999.0,-999.0,-999,0.00,,,0.00,weatherlink.com 1.10,2013-02-04 00:31:00,
2013-02-03 19:46:00,-999.0,-99.9,30.17,North,-999,-999.0,-999.0,-999,0.00,,,0.00,weatherlink.com 1.10,2013-02-04 00:46:00,
2013-02-03 20:01:00,-999.0,-99.9,30.17,North,-999,-999.0,-999.0,-999,0.00,,,0.00,weatherlink.com 1.10,2013-02-04 01:01:00,
2013-02-03 20:16:00,-999.0,-99.9,30.17,North,-999,-999.0,-999.0,-999,0.00,,,0.00,weatherlink.com 1.10,2013-02-04 01:16:00,
2013-02-03 20:31:00,-999.0,-99.9,30.17,North,-999,-999.0,-999.0,-999,0.00,,,0.00,weatherlink.com 1.10,2013-02-04 01:31:00,
2013-02-03 20:47:00,-999.0,-99.9,30.17,North,-999,-999.0,-999.0,-999,0.00,,,0.00,weatherlink.com 1.10,2013-02-04 01:47:00,
2013-02-03 21:01:00,-999.0,-99.9,30.17,North,-999,-999.0,-999.0,-999,0.00,,,0.00,weatherlink.com 1.10,2013-02-04 02:01:00,
2013-02-03 21:16:00,-999.0,-99.9,30.17,North,-999,-999.0,-999.0,-999,0.00,,,0.00,weatherlink.com 1.10,2013-02-04 02:16:00,
2013-02-03 21:31:00,-999.0,-99.9,30.17,North,-999,-999.0,-999.0,-999,0.00,,,0.00,weatherlink.com 1.10,2013-02-04 02:31:00,
2013-02-03 21:47:00,-999.0,-99.9,30.17,North,-999,-999.0,-999.0,-999,0.00,,,0.00,weatherlink.com 1.10,2013-02-04 02:47:00,
2013-02-03 22:02:00,-999.0,-99.9,30.16,North,-999,-999.0,-999.0,-999,0.00,,,0.00,weatherlink.com 1.10,2013-02-04 03:02:00,
2013-02-03 22:17:00,-999.0,-99.9,30.16,North,-999,-999.0,-999.0,-999,0.00,,,0.00,weatherlink.com 1.10,2013-02-04 03:17:00,
2013-02-03 22:32:00,-999.0,-99.9,30.16,North,-999,-999.0,-999.0,-999,0.00,,,0.00,weatherlink.com 1.10,2013-02-04 03:32:00,
2013-02-03 22:47:00,-999.0,-99.9,30.17,North,-999,-999.0,-999.0,-999,0.00,,,0.00,weatherlink.com 1.10,2013-02-04 03:47:00,
2013-02-03 23:02:00,-999.0,-99.9,30.17,North,-999,-999.0,-999.0,-999,0.00,,,0.00,weatherlink.com 1.10,2013-02-04 04:02:00,
2013-02-03 23:17:00,-999.0,-99.9,30.16,North,-999,-999.0,-999.0,-999,0.00,,,0.00,weatherlink.com 1.10,2013-02-04 04:17:00,
2013-02-03 23:32:00,-999.0,-99.9,30.16,North,-999,-999.0,-999.0,-999,0.00,,,0.00,weatherlink.com 1.10,2013-02-04 04:32:00,
2013-02-03 23:47:00,-999.0,-99.9,30.14,North,-999,-999.0,-999.0,-999,0.00,,,0.00,weatherlink.com 1.10,2013-02-04 04:47:00,